sensor_id;sensor_type;location;lat;lon;timestamp;pressure;altitude;pressure_sealevel;temperature;humidity
52719;BME280;38616;42.140;24.760;2023-01-29T00:02:19;99756.63;;;4.22;57.81
52719;BME280;38616;42.140;24.760;2023-01-29T00:04:45;99739.56;;;4.28;57.89
52719;BME280;38616;42.140;24.760;2023-01-29T00:07:10;99750.16;;;4.47;56.96
52719;BME280;38616;42.140;24.760;2023-01-29T00:09:36;99752.00;;;4.58;57.20
52719;BME280;38616;42.140;24.760;2023-01-29T00:12:01;99754.91;;;4.69;56.44
52719;BME280;38616;42.140;24.760;2023-01-29T00:14:27;99747.94;;;4.56;56.45
52719;BME280;38616;42.140;24.760;2023-01-29T00:16:52;99758.69;;;4.56;56.29
52719;BME280;38616;42.140;24.760;2023-01-29T00:19:18;99745.25;;;4.44;56.99
52719;BME280;38616;42.140;24.760;2023-01-29T00:21:44;99752.41;;;4.38;57.12
52719;BME280;38616;42.140;24.760;2023-01-29T00:24:11;99774.63;;;4.46;56.70
52719;BME280;38616;42.140;24.760;2023-01-29T00:26:36;99743.53;;;4.38;56.78
52719;BME280;38616;42.140;24.760;2023-01-29T00:29:04;99774.47;;;4.64;56.60
52719;BME280;38616;42.140;24.760;2023-01-29T00:31:29;99779.75;;;4.47;56.45
52719;BME280;38616;42.140;24.760;2023-01-29T00:33:55;99757.06;;;4.55;56.90
52719;BME280;38616;42.140;24.760;2023-01-29T00:36:21;99769.47;;;4.32;56.79
52719;BME280;38616;42.140;24.760;2023-01-29T00:38:47;99771.81;;;4.17;57.34
52719;BME280;38616;42.140;24.760;2023-01-29T00:41:19;99790.63;;;4.40;57.23
52719;BME280;38616;42.140;24.760;2023-01-29T00:44:17;99778.38;;;3.97;58.43
52719;BME280;38616;42.140;24.760;2023-01-29T00:47:02;99781.97;;;3.91;58.68
52719;BME280;38616;42.140;24.760;2023-01-29T00:49:29;99780.34;;;4.02;58.83
52719;BME280;38616;42.140;24.760;2023-01-29T00:51:54;99776.97;;;4.18;58.44
52719;BME280;38616;42.140;24.760;2023-01-29T00:54:38;99775.56;;;4.27;57.52
52719;BME280;38616;42.140;24.760;2023-01-29T00:57:03;99778.03;;;4.41;57.47
52719;BME280;38616;42.140;24.760;2023-01-29T00:59:29;99783.75;;;4.33;57.71
52719;BME280;38616;42.140;24.760;2023-01-29T01:01:55;99769.94;;;4.05;58.01
52719;BME280;38616;42.140;24.760;2023-01-29T01:04:39;99787.25;;;4.21;58.30
52719;BME280;38616;42.140;24.760;2023-01-29T01:07:05;99779.06;;;4.16;58.02
52719;BME280;38616;42.140;24.760;2023-01-29T01:09:31;99772.94;;;3.85;58.28
52719;BME280;38616;42.140;24.760;2023-01-29T01:12:15;99783.03;;;4.02;58.58
52719;BME280;38616;42.140;24.760;2023-01-29T01:14:40;99777.53;;;3.96;58.60
52719;BME280;38616;42.140;24.760;2023-01-29T01:17:09;99763.38;;;3.89;58.60
52719;BME280;38616;42.140;24.760;2023-01-29T01:19:34;99778.59;;;4.19;58.27
52719;BME280;38616;42.140;24.760;2023-01-29T01:22:00;99781.75;;;4.16;57.86
52719;BME280;38616;42.140;24.760;2023-01-29T01:24:26;99777.66;;;4.02;58.72
52719;BME280;38616;42.140;24.760;2023-01-29T01:26:52;99786.44;;;4.09;58.86
52719;BME280;38616;42.140;24.760;2023-01-29T01:29:17;99770.38;;;4.02;58.58
52719;BME280;38616;42.140;24.760;2023-01-29T01:31:42;99776.56;;;3.79;59.28
52719;BME280;38616;42.140;24.760;2023-01-29T01:34:08;99786.97;;;3.99;58.53
52719;BME280;38616;42.140;24.760;2023-01-29T01:36:33;99781.06;;;4.09;58.74
52719;BME280;38616;42.140;24.760;2023-01-29T01:38:59;99777.19;;;4.05;58.73
52719;BME280;38616;42.140;24.760;2023-01-29T01:41:25;99788.44;;;4.25;58.01
52719;BME280;38616;42.140;24.760;2023-01-29T01:43:53;99787.22;;;4.09;58.78
52719;BME280;38616;42.140;24.760;2023-01-29T01:46:20;99779.66;;;4.18;58.86
52719;BME280;38616;42.140;24.760;2023-01-29T01:48:51;99773.09;;;4.14;58.14
52719;BME280;38616;42.140;24.760;2023-01-29T01:51:19;99780.44;;;3.83;58.66
52719;BME280;38616;42.140;24.760;2023-01-29T01:53:50;99785.97;;;3.58;59.97
52719;BME280;38616;42.140;24.760;2023-01-29T01:56:23;99783.16;;;3.95;59.05
52719;BME280;38616;42.140;24.760;2023-01-29T01:58:54;99779.63;;;4.06;59.00
52719;BME280;38616;42.140;24.760;2023-01-29T02:01:22;99793.44;;;4.10;58.50
52719;BME280;38616;42.140;24.760;2023-01-29T02:03:59;99788.09;;;3.67;59.78
52719;BME280;38616;42.140;24.760;2023-01-29T02:06:44;99784.94;;;3.70;59.95
52719;BME280;38616;42.140;24.760;2023-01-29T02:09:36;99791.84;;;3.66;59.99
52719;BME280;38616;42.140;24.760;2023-01-29T02:12:07;99786.84;;;3.70;59.71
52719;BME280;38616;42.140;24.760;2023-01-29T02:14:34;99783.78;;;3.66;60.13
52719;BME280;38616;42.140;24.760;2023-01-29T02:17:03;99796.56;;;3.83;59.75
52719;BME280;38616;42.140;24.760;2023-01-29T02:19:38;99805.59;;;3.58;60.03
52719;BME280;38616;42.140;24.760;2023-01-29T02:25:16;99805.13;;;3.61;60.53
52719;BME280;38616;42.140;24.760;2023-01-29T02:32:50;99794.84;;;3.58;60.54
52719;BME280;38616;42.140;24.760;2023-01-29T02:35:44;99818.69;;;3.66;60.34
52719;BME280;38616;42.140;24.760;2023-01-29T02:38:46;99815.09;;;3.73;60.51
52719;BME280;38616;42.140;24.760;2023-01-29T02:41:25;99825.97;;;3.78;60.56
52719;BME280;38616;42.140;24.760;2023-01-29T02:44:08;99821.53;;;3.41;61.40
52719;BME280;38616;42.140;24.760;2023-01-29T02:47:09;99815.97;;;3.43;61.40
52719;BME280;38616;42.140;24.760;2023-01-29T02:50:22;99815.34;;;3.71;61.27
52719;BME280;38616;42.140;24.760;2023-01-29T02:52:50;99812.88;;;3.69;61.22
52719;BME280;38616;42.140;24.760;2023-01-29T02:55:27;99818.16;;;3.76;61.35
52719;BME280;38616;42.140;24.760;2023-01-29T02:58:02;99824.97;;;3.91;61.03
52719;BME280;38616;42.140;24.760;2023-01-29T03:00:40;99810.84;;;3.95;61.25
52719;BME280;38616;42.140;24.760;2023-01-29T03:03:19;99819.53;;;4.21;60.13
52719;BME280;38616;42.140;24.760;2023-01-29T03:06:06;99825.44;;;3.88;61.25
52719;BME280;38616;42.140;24.760;2023-01-29T03:08:43;99825.53;;;3.81;61.39
52719;BME280;38616;42.140;24.760;2023-01-29T03:11:13;99831.88;;;3.87;61.86
52719;BME280;38616;42.140;24.760;2023-01-29T03:13:44;99830.56;;;3.89;61.70
52719;BME280;38616;42.140;24.760;2023-01-29T03:16:25;99833.97;;;3.84;62.13
52719;BME280;38616;42.140;24.760;2023-01-29T03:21:40;99838.69;;;4.13;60.91
52719;BME280;38616;42.140;24.760;2023-01-29T03:24:51;99835.41;;;4.23;60.51
52719;BME280;38616;42.140;24.760;2023-01-29T03:27:56;99844.78;;;3.78;61.01
52719;BME280;38616;42.140;24.760;2023-01-29T03:30:48;99839.81;;;3.93;61.49
52719;BME280;38616;42.140;24.760;2023-01-29T03:33:39;99848.66;;;3.82;61.16
52719;BME280;38616;42.140;24.760;2023-01-29T03:36:15;99848.97;;;3.62;61.38
52719;BME280;38616;42.140;24.760;2023-01-29T03:38:43;99847.16;;;3.86;61.50
52719;BME280;38616;42.140;24.760;2023-01-29T03:41:32;99853.44;;;3.80;61.02
52719;BME280;38616;42.140;24.760;2023-01-29T03:47:00;99856.03;;;3.25;62.49
52719;BME280;38616;42.140;24.760;2023-01-29T03:50:06;99852.13;;;3.70;61.98
52719;BME280;38616;42.140;24.760;2023-01-29T04:01:24;99864.31;;;3.73;61.92
52719;BME280;38616;42.140;24.760;2023-01-29T04:04:07;99875.78;;;3.50;61.67
52719;BME280;38616;42.140;24.760;2023-01-29T04:06:36;99876.53;;;3.38;62.47
52719;BME280;38616;42.140;24.760;2023-01-29T04:11:30;99870.00;;;3.65;62.30
52719;BME280;38616;42.140;24.760;2023-01-29T04:13:57;99889.44;;;3.48;62.58
52719;BME280;38616;42.140;24.760;2023-01-29T04:16:30;99883.56;;;3.39;63.45
52719;BME280;38616;42.140;24.760;2023-01-29T04:18:58;99890.56;;;3.22;63.96
52719;BME280;38616;42.140;24.760;2023-01-29T04:21:24;99893.91;;;3.36;63.57
52719;BME280;38616;42.140;24.760;2023-01-29T04:23:51;99892.38;;;3.28;63.82
52719;BME280;38616;42.140;24.760;2023-01-29T04:37:26;99901.00;;;3.49;64.20
52719;BME280;38616;42.140;24.760;2023-01-29T04:39:55;99908.19;;;3.36;64.49
52719;BME280;38616;42.140;24.760;2023-01-29T04:42:30;99904.94;;;3.46;64.86
52719;BME280;38616;42.140;24.760;2023-01-29T04:45:04;99911.50;;;3.50;64.56
52719;BME280;38616;42.140;24.760;2023-01-29T04:50:32;99913.91;;;3.21;65.91
52719;BME280;38616;42.140;24.760;2023-01-29T04:53:09;99918.97;;;2.92;67.33
52719;BME280;38616;42.140;24.760;2023-01-29T04:55:47;99923.22;;;3.00;67.20
52719;BME280;38616;42.140;24.760;2023-01-29T04:58:38;99920.91;;;2.85;68.07
52719;BME280;38616;42.140;24.760;2023-01-29T05:01:07;99925.00;;;2.88;67.86
52719;BME280;38616;42.140;24.760;2023-01-29T05:03:36;99909.84;;;2.75;68.90
52719;BME280;38616;42.140;24.760;2023-01-29T05:06:05;99917.66;;;3.02;68.52
52719;BME280;38616;42.140;24.760;2023-01-29T05:08:32;99919.19;;;2.91;67.96
52719;BME280;38616;42.140;24.760;2023-01-29T05:10:59;99939.28;;;2.63;69.86
52719;BME280;38616;42.140;24.760;2023-01-29T05:13:25;99933.06;;;3.06;69.15
52719;BME280;38616;42.140;24.760;2023-01-29T05:15:59;99931.13;;;3.14;68.37
52719;BME280;38616;42.140;24.760;2023-01-29T05:18:26;99936.81;;;3.05;67.88
52719;BME280;38616;42.140;24.760;2023-01-29T05:20:54;99928.31;;;3.08;68.55
52719;BME280;38616;42.140;24.760;2023-01-29T05:23:21;99938.88;;;3.03;68.62
52719;BME280;38616;42.140;24.760;2023-01-29T05:25:49;99937.75;;;3.11;68.48
52719;BME280;38616;42.140;24.760;2023-01-29T05:28:14;99927.03;;;3.11;68.34
52719;BME280;38616;42.140;24.760;2023-01-29T05:30:47;99934.44;;;3.53;67.86
52719;BME280;38616;42.140;24.760;2023-01-29T05:33:21;99934.84;;;3.68;66.77
52719;BME280;38616;42.140;24.760;2023-01-29T05:35:47;99935.13;;;3.79;66.25
52719;BME280;38616;42.140;24.760;2023-01-29T05:38:14;99938.72;;;3.73;66.12
52719;BME280;38616;42.140;24.760;2023-01-29T05:40:40;99937.63;;;3.43;67.99
52719;BME280;38616;42.140;24.760;2023-01-29T05:43:13;99943.78;;;3.81;66.66
52719;BME280;38616;42.140;24.760;2023-01-29T05:45:39;99937.22;;;3.77;66.65
52719;BME280;38616;42.140;24.760;2023-01-29T05:48:05;99940.19;;;3.87;65.69
52719;BME280;38616;42.140;24.760;2023-01-29T05:50:30;99938.50;;;3.74;65.42
52719;BME280;38616;42.140;24.760;2023-01-29T05:52:59;99959.44;;;3.84;65.78
52719;BME280;38616;42.140;24.760;2023-01-29T05:55:26;99956.41;;;3.80;65.39
52719;BME280;38616;42.140;24.760;2023-01-29T05:57:53;99961.94;;;3.67;66.60
52719;BME280;38616;42.140;24.760;2023-01-29T06:00:19;99967.94;;;3.99;65.12
52719;BME280;38616;42.140;24.760;2023-01-29T06:02:44;99960.16;;;3.61;65.96
52719;BME280;38616;42.140;24.760;2023-01-29T06:05:10;99955.00;;;3.59;65.89
52719;BME280;38616;42.140;24.760;2023-01-29T06:07:36;99958.06;;;3.81;65.40
52719;BME280;38616;42.140;24.760;2023-01-29T06:10:02;99963.63;;;3.80;64.55
52719;BME280;38616;42.140;24.760;2023-01-29T06:12:27;99977.38;;;3.72;65.05
52719;BME280;38616;42.140;24.760;2023-01-29T06:14:53;99975.97;;;3.32;66.13
52719;BME280;38616;42.140;24.760;2023-01-29T06:17:18;99983.72;;;3.21;66.63
52719;BME280;38616;42.140;24.760;2023-01-29T06:19:44;99975.41;;;3.04;67.07
52719;BME280;38616;42.140;24.760;2023-01-29T06:22:09;99970.59;;;3.32;67.51
52719;BME280;38616;42.140;24.760;2023-01-29T06:24:34;99986.94;;;3.67;66.12
52719;BME280;38616;42.140;24.760;2023-01-29T06:27:00;99978.88;;;3.86;65.63
52719;BME280;38616;42.140;24.760;2023-01-29T06:29:25;99988.09;;;4.09;65.92
52719;BME280;38616;42.140;24.760;2023-01-29T06:31:51;99993.09;;;4.36;68.27
52719;BME280;38616;42.140;24.760;2023-01-29T06:34:16;99996.72;;;3.80;66.38
52719;BME280;38616;42.140;24.760;2023-01-29T06:36:42;99998.94;;;4.33;67.53
52719;BME280;38616;42.140;24.760;2023-01-29T06:39:07;100000.19;;;4.30;64.76
52719;BME280;38616;42.140;24.760;2023-01-29T06:41:33;100017.34;;;2.80;67.63
52719;BME280;38616;42.140;24.760;2023-01-29T06:43:59;100009.19;;;2.36;68.13
52719;BME280;38616;42.140;24.760;2023-01-29T06:46:24;100018.94;;;1.78;70.29
52719;BME280;38616;42.140;24.760;2023-01-29T06:48:50;100015.53;;;1.57;71.81
52719;BME280;38616;42.140;24.760;2023-01-29T06:51:15;100009.56;;;1.48;70.74
52719;BME280;38616;42.140;24.760;2023-01-29T06:53:41;100019.53;;;1.80;70.66
52719;BME280;38616;42.140;24.760;2023-01-29T06:56:06;100026.72;;;1.93;70.49
52719;BME280;38616;42.140;24.760;2023-01-29T06:58:32;100023.00;;;1.94;70.36
52719;BME280;38616;42.140;24.760;2023-01-29T07:01:08;100027.84;;;1.65;70.95
52719;BME280;38616;42.140;24.760;2023-01-29T07:03:34;100037.03;;;1.89;70.92
52719;BME280;38616;42.140;24.760;2023-01-29T07:05:59;100030.88;;;1.82;69.18
52719;BME280;38616;42.140;24.760;2023-01-29T07:08:25;100026.38;;;1.69;70.78
52719;BME280;38616;42.140;24.760;2023-01-29T07:10:50;100035.56;;;2.39;71.04
52719;BME280;38616;42.140;24.760;2023-01-29T07:13:16;100041.38;;;2.36;69.81
52719;BME280;38616;42.140;24.760;2023-01-29T07:15:41;100037.44;;;1.93;71.34
52719;BME280;38616;42.140;24.760;2023-01-29T07:18:08;100037.44;;;1.93;71.94
52719;BME280;38616;42.140;24.760;2023-01-29T07:20:41;100049.19;;;1.85;71.23
52719;BME280;38616;42.140;24.760;2023-01-29T07:23:13;100049.41;;;1.90;71.75
52719;BME280;38616;42.140;24.760;2023-01-29T07:25:40;100046.28;;;1.94;69.85
52719;BME280;38616;42.140;24.760;2023-01-29T07:28:06;100042.28;;;2.16;71.28
52719;BME280;38616;42.140;24.760;2023-01-29T07:30:32;100037.66;;;2.30;69.84
52719;BME280;38616;42.140;24.760;2023-01-29T07:33:06;100031.63;;;2.03;70.66
52719;BME280;38616;42.140;24.760;2023-01-29T07:35:36;100034.19;;;2.30;69.61
52719;BME280;38616;42.140;24.760;2023-01-29T07:38:05;100040.25;;;2.12;70.98
52719;BME280;38616;42.140;24.760;2023-01-29T07:40:30;100038.13;;;2.20;69.30
52719;BME280;38616;42.140;24.760;2023-01-29T07:43:00;100039.94;;;1.81;71.23
52719;BME280;38616;42.140;24.760;2023-01-29T07:45:28;100041.78;;;2.33;70.02
52719;BME280;38616;42.140;24.760;2023-01-29T07:47:54;100048.91;;;2.07;70.73
52719;BME280;38616;42.140;24.760;2023-01-29T07:50:21;100052.94;;;2.30;70.54
52719;BME280;38616;42.140;24.760;2023-01-29T07:52:46;100046.47;;;1.99;69.88
52719;BME280;38616;42.140;24.760;2023-01-29T07:55:12;100040.94;;;1.94;71.73
52719;BME280;38616;42.140;24.760;2023-01-29T07:57:37;100047.06;;;2.08;69.57
52719;BME280;38616;42.140;24.760;2023-01-29T08:00:03;100053.25;;;2.08;71.99
52719;BME280;38616;42.140;24.760;2023-01-29T08:02:29;100056.16;;;2.00;69.65
52719;BME280;38616;42.140;24.760;2023-01-29T08:04:54;100066.50;;;1.96;71.42
52719;BME280;38616;42.140;24.760;2023-01-29T08:07:19;100061.84;;;2.24;71.36
52719;BME280;38616;42.140;24.760;2023-01-29T08:09:45;100067.25;;;2.10;71.71
52719;BME280;38616;42.140;24.760;2023-01-29T08:12:10;100046.31;;;2.32;72.24
52719;BME280;38616;42.140;24.760;2023-01-29T08:14:36;100068.19;;;2.29;71.07
52719;BME280;38616;42.140;24.760;2023-01-29T08:17:01;100065.50;;;2.68;71.63
52719;BME280;38616;42.140;24.760;2023-01-29T08:19:27;100067.75;;;2.39;69.66
52719;BME280;38616;42.140;24.760;2023-01-29T08:21:52;100067.31;;;2.42;72.39
52719;BME280;38616;42.140;24.760;2023-01-29T08:24:17;100063.97;;;2.54;70.14
52719;BME280;38616;42.140;24.760;2023-01-29T08:26:43;100072.81;;;2.54;71.44
52719;BME280;38616;42.140;24.760;2023-01-29T08:29:10;100056.13;;;2.52;70.99
52719;BME280;38616;42.140;24.760;2023-01-29T08:31:35;100057.97;;;2.13;71.34
52719;BME280;38616;42.140;24.760;2023-01-29T08:34:01;100068.66;;;2.58;72.44
52719;BME280;38616;42.140;24.760;2023-01-29T08:36:26;100073.34;;;2.31;70.34
52719;BME280;38616;42.140;24.760;2023-01-29T08:38:52;100064.59;;;2.49;72.57
52719;BME280;38616;42.140;24.760;2023-01-29T08:41:17;100066.31;;;2.36;69.10
52719;BME280;38616;42.140;24.760;2023-01-29T08:43:42;100070.00;;;2.42;71.86
52719;BME280;38616;42.140;24.760;2023-01-29T08:46:08;100074.59;;;2.67;71.48
52719;BME280;38616;42.140;24.760;2023-01-29T08:48:33;100083.47;;;2.29;70.54
52719;BME280;38616;42.140;24.760;2023-01-29T08:51:00;100089.38;;;2.76;72.26
52719;BME280;38616;42.140;24.760;2023-01-29T08:53:26;100102.19;;;2.42;69.70
52719;BME280;38616;42.140;24.760;2023-01-29T08:55:53;100094.69;;;2.51;71.00
52719;BME280;38616;42.140;24.760;2023-01-29T08:58:18;100076.47;;;2.66;72.42
52719;BME280;38616;42.140;24.760;2023-01-29T09:00:44;100086.75;;;2.31;70.69
52719;BME280;38616;42.140;24.760;2023-01-29T09:03:09;100084.19;;;2.49;73.41
52719;BME280;38616;42.140;24.760;2023-01-29T09:05:37;100081.59;;;3.00;71.95
52719;BME280;38616;42.140;24.760;2023-01-29T09:08:03;100088.75;;;3.76;71.51
52719;BME280;38616;42.140;24.760;2023-01-29T09:10:28;100077.66;;;2.71;73.47
52719;BME280;38616;42.140;24.760;2023-01-29T09:12:54;100071.78;;;2.55;74.09
52719;BME280;38616;42.140;24.760;2023-01-29T09:15:19;100083.28;;;2.94;73.32
52719;BME280;38616;42.140;24.760;2023-01-29T09:17:45;100076.16;;;2.81;71.36
52719;BME280;38616;42.140;24.760;2023-01-29T09:20:10;100082.47;;;2.62;72.28
52719;BME280;38616;42.140;24.760;2023-01-29T09:22:36;100084.34;;;2.93;72.35
52719;BME280;38616;42.140;24.760;2023-01-29T09:25:02;100077.88;;;2.69;72.08
52719;BME280;38616;42.140;24.760;2023-01-29T09:27:27;100079.78;;;2.94;72.30
52719;BME280;38616;42.140;24.760;2023-01-29T09:29:53;100084.34;;;3.63;72.21
52719;BME280;38616;42.140;24.760;2023-01-29T09:32:18;100065.06;;;4.22;69.79
52719;BME280;38616;42.140;24.760;2023-01-29T09:34:44;100070.75;;;4.44;68.60
52719;BME280;38616;42.140;24.760;2023-01-29T09:37:09;100073.75;;;4.97;67.78
52719;BME280;38616;42.140;24.760;2023-01-29T09:39:34;100058.88;;;5.18;66.07
52719;BME280;38616;42.140;24.760;2023-01-29T09:42:11;100069.19;;;5.21;65.81
52719;BME280;38616;42.140;24.760;2023-01-29T09:47:28;100067.03;;;4.76;67.08
52719;BME280;38616;42.140;24.760;2023-01-29T09:49:59;100068.28;;;4.73;66.30
52719;BME280;38616;42.140;24.760;2023-01-29T09:52:31;100057.19;;;4.69;66.23
52719;BME280;38616;42.140;24.760;2023-01-29T09:55:06;100056.09;;;4.58;66.68
52719;BME280;38616;42.140;24.760;2023-01-29T09:57:57;100058.63;;;4.53;67.67
52719;BME280;38616;42.140;24.760;2023-01-29T10:00:37;100067.56;;;2.98;72.55
52719;BME280;38616;42.140;24.760;2023-01-29T10:09:17;100058.06;;;2.70;71.47
52719;BME280;38616;42.140;24.760;2023-01-29T10:14:31;100044.34;;;2.85;72.01
52719;BME280;38616;42.140;24.760;2023-01-29T10:24:56;100030.28;;;4.08;69.94
52719;BME280;38616;42.140;24.760;2023-01-29T10:27:31;100030.06;;;4.83;67.74
52719;BME280;38616;42.140;24.760;2023-01-29T10:29:57;100020.59;;;5.16;66.19
52719;BME280;38616;42.140;24.760;2023-01-29T10:32:25;100018.72;;;5.28;64.43
52719;BME280;38616;42.140;24.760;2023-01-29T10:34:56;100022.34;;;5.22;65.15
52719;BME280;38616;42.140;24.760;2023-01-29T10:37:27;100014.88;;;5.24;64.53
52719;BME280;38616;42.140;24.760;2023-01-29T10:39:56;100009.72;;;5.35;63.03
52719;BME280;38616;42.140;24.760;2023-01-29T10:42:36;100006.53;;;5.50;63.78
52719;BME280;38616;42.140;24.760;2023-01-29T10:55:57;99993.09;;;5.02;74.86
52719;BME280;38616;42.140;24.760;2023-01-29T10:58:37;100007.84;;;3.47;68.76
52719;BME280;38616;42.140;24.760;2023-01-29T11:01:08;100000.69;;;3.40;67.88
52719;BME280;38616;42.140;24.760;2023-01-29T11:03:33;100001.28;;;3.43;69.21
52719;BME280;38616;42.140;24.760;2023-01-29T11:06:09;99998.13;;;3.64;67.13
52719;BME280;38616;42.140;24.760;2023-01-29T11:11:18;99982.38;;;3.31;67.26
52719;BME280;38616;42.140;24.760;2023-01-29T11:13:51;99993.00;;;3.63;68.20
52719;BME280;38616;42.140;24.760;2023-01-29T11:16:18;99990.38;;;3.56;66.03
52719;BME280;38616;42.140;24.760;2023-01-29T11:18:50;99992.94;;;3.51;67.94
52719;BME280;38616;42.140;24.760;2023-01-29T11:21:16;99983.59;;;3.72;65.71
52719;BME280;38616;42.140;24.760;2023-01-29T11:23:41;99977.31;;;4.51;66.30
52719;BME280;38616;42.140;24.760;2023-01-29T11:26:10;99982.91;;;5.04;64.30
52719;BME280;38616;42.140;24.760;2023-01-29T11:28:40;99973.16;;;5.39;62.75
52719;BME280;38616;42.140;24.760;2023-01-29T11:31:21;99960.13;;;5.88;61.82
52719;BME280;38616;42.140;24.760;2023-01-29T11:34:12;99960.41;;;5.75;60.99
52719;BME280;38616;42.140;24.760;2023-01-29T11:36:40;99940.06;;;5.96;60.13
52719;BME280;38616;42.140;24.760;2023-01-29T11:39:19;99961.00;;;6.18;59.78
52719;BME280;38616;42.140;24.760;2023-01-29T11:42:00;99951.66;;;5.97;59.19
52719;BME280;38616;42.140;24.760;2023-01-29T11:49:51;99943.09;;;6.46;58.28
52719;BME280;38616;42.140;24.760;2023-01-29T11:52:19;99944.44;;;6.60;57.96
52719;BME280;38616;42.140;24.760;2023-01-29T11:54:48;99931.81;;;6.49;58.01
52719;BME280;38616;42.140;24.760;2023-01-29T11:57:23;99937.91;;;6.10;57.36
52719;BME280;38616;42.140;24.760;2023-01-29T11:59:51;99928.78;;;6.28;57.88
52719;BME280;38616;42.140;24.760;2023-01-29T12:04:51;99927.72;;;6.29;57.12
52719;BME280;38616;42.140;24.760;2023-01-29T12:07:18;99919.56;;;6.58;57.41
52719;BME280;38616;42.140;24.760;2023-01-29T12:09:56;99929.22;;;5.38;60.95
52719;BME280;38616;42.140;24.760;2023-01-29T12:12:35;99920.59;;;5.65;69.10
52719;BME280;38616;42.140;24.760;2023-01-29T12:15:15;99920.09;;;4.20;63.59
52719;BME280;38616;42.140;24.760;2023-01-29T12:17:46;99907.59;;;3.95;64.62
52719;BME280;38616;42.140;24.760;2023-01-29T12:20:18;99910.75;;;5.18;62.19
52719;BME280;38616;42.140;24.760;2023-01-29T12:23:20;99912.81;;;6.10;59.54
52719;BME280;38616;42.140;24.760;2023-01-29T12:26:05;99905.31;;;6.46;57.13
52719;BME280;38616;42.140;24.760;2023-01-29T12:31:42;99902.63;;;6.46;56.77
52719;BME280;38616;42.140;24.760;2023-01-29T12:37:08;99901.06;;;6.50;56.09
52719;BME280;38616;42.140;24.760;2023-01-29T12:39:36;99894.34;;;6.70;55.43
52719;BME280;38616;42.140;24.760;2023-01-29T12:42:21;99892.88;;;6.45;55.26
52719;BME280;38616;42.140;24.760;2023-01-29T12:50:04;99896.59;;;5.52;58.02
52719;BME280;38616;42.140;24.760;2023-01-29T12:53:18;99910.38;;;4.19;62.21
52719;BME280;38616;42.140;24.760;2023-01-29T12:58:20;99902.59;;;5.83;58.51
52719;BME280;38616;42.140;24.760;2023-01-29T13:00:49;99900.59;;;6.36;57.05
52719;BME280;38616;42.140;24.760;2023-01-29T13:06:16;99901.06;;;6.50;55.67
52719;BME280;38616;42.140;24.760;2023-01-29T13:08:47;99904.00;;;6.65;55.24
52719;BME280;38616;42.140;24.760;2023-01-29T13:11:26;99905.31;;;6.80;54.17
52719;BME280;38616;42.140;24.760;2023-01-29T13:13:58;99906.28;;;6.74;54.36
52719;BME280;38616;42.140;24.760;2023-01-29T13:16:27;99896.22;;;6.86;53.87
52719;BME280;38616;42.140;24.760;2023-01-29T13:21:58;99899.19;;;6.68;54.04
52719;BME280;38616;42.140;24.760;2023-01-29T13:24:32;99899.59;;;6.59;54.11
52719;BME280;38616;42.140;24.760;2023-01-29T13:26:59;99908.22;;;4.87;58.43
52719;BME280;38616;42.140;24.760;2023-01-29T13:29:27;99898.03;;;4.90;58.13
52719;BME280;38616;42.140;24.760;2023-01-29T13:32:02;99908.00;;;4.11;61.41
52719;BME280;38616;42.140;24.760;2023-01-29T13:34:31;99909.25;;;4.98;59.29
52719;BME280;38616;42.140;24.760;2023-01-29T13:37:00;99910.69;;;5.83;55.64
52719;BME280;38616;42.140;24.760;2023-01-29T13:39:37;99903.91;;;6.26;55.16
52719;BME280;38616;42.140;24.760;2023-01-29T13:45:00;99896.78;;;6.71;53.49
52719;BME280;38616;42.140;24.760;2023-01-29T13:47:29;99895.66;;;6.84;52.32
52719;BME280;38616;42.140;24.760;2023-01-29T14:02:45;99906.97;;;7.03;51.79
52719;BME280;38616;42.140;24.760;2023-01-29T14:10:24;99900.00;;;4.47;59.16
52719;BME280;38616;42.140;24.760;2023-01-29T14:13:24;99904.19;;;5.67;55.32
52719;BME280;38616;42.140;24.760;2023-01-29T14:18:26;99898.63;;;6.48;52.83
52719;BME280;38616;42.140;24.760;2023-01-29T14:20:56;99904.66;;;6.73;51.72
52719;BME280;38616;42.140;24.760;2023-01-29T14:26:02;99898.28;;;6.79;51.99
52719;BME280;38616;42.140;24.760;2023-01-29T14:28:31;99899.06;;;6.79;52.06
52719;BME280;38616;42.140;24.760;2023-01-29T14:30:58;99911.03;;;6.67;51.89
52719;BME280;38616;42.140;24.760;2023-01-29T14:33:34;99916.13;;;6.46;52.07
52719;BME280;38616;42.140;24.760;2023-01-29T14:36:04;99907.25;;;6.85;51.41
52719;BME280;38616;42.140;24.760;2023-01-29T14:38:31;99913.50;;;6.68;51.22
52719;BME280;38616;42.140;24.760;2023-01-29T14:41:07;99915.22;;;6.40;50.88
52719;BME280;38616;42.140;24.760;2023-01-29T14:43:39;99931.06;;;6.36;51.08
52719;BME280;38616;42.140;24.760;2023-01-29T14:48:57;99927.88;;;6.40;52.09
52719;BME280;38616;42.140;24.760;2023-01-29T14:51:24;99927.91;;;6.57;51.66
52719;BME280;38616;42.140;24.760;2023-01-29T14:56:55;99933.94;;;6.30;52.75
52719;BME280;38616;42.140;24.760;2023-01-29T14:59:31;99931.75;;;6.44;52.78
52719;BME280;38616;42.140;24.760;2023-01-29T15:02:01;99933.53;;;6.55;52.81
52719;BME280;38616;42.140;24.760;2023-01-29T15:04:32;99941.06;;;6.53;53.37
52719;BME280;38616;42.140;24.760;2023-01-29T15:09:45;99933.28;;;6.23;54.70
52719;BME280;38616;42.140;24.760;2023-01-29T15:14:51;99939.72;;;6.21;54.95
52719;BME280;38616;42.140;24.760;2023-01-29T15:17:25;99943.75;;;6.53;54.19
52719;BME280;38616;42.140;24.760;2023-01-29T15:19:52;99934.69;;;6.42;54.23
52719;BME280;38616;42.140;24.760;2023-01-29T15:22:20;99949.81;;;6.60;53.85
52719;BME280;38616;42.140;24.760;2023-01-29T15:25:00;99942.59;;;6.15;54.54
52719;BME280;38616;42.140;24.760;2023-01-29T15:27:26;99944.38;;;6.09;54.76
52719;BME280;38616;42.140;24.760;2023-01-29T15:30:00;99945.78;;;6.00;55.54
52719;BME280;38616;42.140;24.760;2023-01-29T15:32:35;99952.75;;;6.25;55.05
52719;BME280;38616;42.140;24.760;2023-01-29T15:35:07;99951.41;;;6.10;55.33